sensor_id;sensor_type;location;lat;lon;timestamp;P1;durP1;ratioP1;P2;durP2;ratioP2
30398;SDS011;17195;50.838;7.214;2023-05-29T00:00:45;8.52;;;3.67;;
30398;SDS011;17195;50.838;7.214;2023-05-29T00:03:10;7.78;;;3.70;;
30398;SDS011;17195;50.838;7.214;2023-05-29T00:05:36;7.95;;;4.05;;
30398;SDS011;17195;50.838;7.214;2023-05-29T00:08:01;7.10;;;3.50;;
30398;SDS011;17195;50.838;7.214;2023-05-29T00:10:27;6.25;;;3.67;;
30398;SDS011;17195;50.838;7.214;2023-05-29T00:12:52;9.15;;;4.00;;
30398;SDS011;17195;50.838;7.214;2023-05-29T00:15:18;6.45;;;3.20;;
30398;SDS011;17195;50.838;7.214;2023-05-29T00:17:43;7.78;;;3.38;;
30398;SDS011;17195;50.838;7.214;2023-05-29T00:20:09;5.38;;;3.42;;
30398;SDS011;17195;50.838;7.214;2023-05-29T00:22:36;6.88;;;3.53;;
30398;SDS011;17195;50.838;7.214;2023-05-29T00:25:03;6.82;;;3.65;;
30398;SDS011;17195;50.838;7.214;2023-05-29T00:27:30;6.72;;;3.88;;
30398;SDS011;17195;50.838;7.214;2023-05-29T00:29:57;6.57;;;3.40;;
30398;SDS011;17195;50.838;7.214;2023-05-29T00:32:23;7.60;;;3.60;;
30398;SDS011;17195;50.838;7.214;2023-05-29T00:34:48;7.43;;;4.07;;
30398;SDS011;17195;50.838;7.214;2023-05-29T00:37:15;8.55;;;3.70;;
30398;SDS011;17195;50.838;7.214;2023-05-29T00:39:40;5.00;;;3.55;;
30398;SDS011;17195;50.838;7.214;2023-05-29T00:42:06;5.38;;;3.42;;
30398;SDS011;17195;50.838;7.214;2023-05-29T00:44:32;8.85;;;4.00;;
30398;SDS011;17195;50.838;7.214;2023-05-29T00:46:58;5.47;;;3.33;;
30398;SDS011;17195;50.838;7.214;2023-05-29T00:49:23;6.85;;;3.60;;
30398;SDS011;17195;50.838;7.214;2023-05-29T00:51:50;6.60;;;3.80;;
30398;SDS011;17195;50.838;7.214;2023-05-29T00:54:20;10.30;;;3.65;;
30398;SDS011;17195;50.838;7.214;2023-05-29T00:56:47;8.82;;;3.63;;
30398;SDS011;17195;50.838;7.214;2023-05-29T00:59:13;10.13;;;4.00;;
30398;SDS011;17195;50.838;7.214;2023-05-29T01:01:39;5.82;;;3.92;;
30398;SDS011;17195;50.838;7.214;2023-05-29T01:04:06;7.80;;;3.67;;
30398;SDS011;17195;50.838;7.214;2023-05-29T01:06:32;13.70;;;4.28;;
30398;SDS011;17195;50.838;7.214;2023-05-29T01:08:58;11.18;;;4.15;;
30398;SDS011;17195;50.838;7.214;2023-05-29T01:14:08;7.63;;;3.47;;
30398;SDS011;17195;50.838;7.214;2023-05-29T01:16:47;6.72;;;3.72;;
30398;SDS011;17195;50.838;7.214;2023-05-29T01:27:28;7.22;;;4.05;;
30398;SDS011;17195;50.838;7.214;2023-05-29T01:29:57;9.73;;;4.18;;
30398;SDS011;17195;50.838;7.214;2023-05-29T01:32:23;6.45;;;3.70;;
30398;SDS011;17195;50.838;7.214;2023-05-29T01:34:50;7.38;;;4.20;;
30398;SDS011;17195;50.838;7.214;2023-05-29T01:37:16;8.10;;;3.97;;
30398;SDS011;17195;50.838;7.214;2023-05-29T01:39:41;6.68;;;3.45;;
30398;SDS011;17195;50.838;7.214;2023-05-29T01:42:07;6.93;;;3.67;;
30398;SDS011;17195;50.838;7.214;2023-05-29T01:44:34;7.63;;;4.05;;
30398;SDS011;17195;50.838;7.214;2023-05-29T01:47:01;9.77;;;4.53;;
30398;SDS011;17195;50.838;7.214;2023-05-29T01:49:28;9.43;;;3.88;;
30398;SDS011;17195;50.838;7.214;2023-05-29T01:51:54;9.35;;;4.15;;
30398;SDS011;17195;50.838;7.214;2023-05-29T01:54:20;5.60;;;4.00;;
30398;SDS011;17195;50.838;7.214;2023-05-29T01:56:46;7.10;;;4.00;;
30398;SDS011;17195;50.838;7.214;2023-05-29T01:59:12;7.57;;;3.97;;
30398;SDS011;17195;50.838;7.214;2023-05-29T02:01:38;8.35;;;4.78;;
30398;SDS011;17195;50.838;7.214;2023-05-29T02:04:05;8.77;;;4.05;;
30398;SDS011;17195;50.838;7.214;2023-05-29T02:06:30;10.55;;;4.68;;
30398;SDS011;17195;50.838;7.214;2023-05-29T02:08:58;10.88;;;5.00;;
30398;SDS011;17195;50.838;7.214;2023-05-29T02:11:23;9.05;;;4.60;;
30398;SDS011;17195;50.838;7.214;2023-05-29T02:13:50;7.65;;;4.50;;
30398;SDS011;17195;50.838;7.214;2023-05-29T02:16:17;8.52;;;4.75;;
30398;SDS011;17195;50.838;7.214;2023-05-29T02:18:45;7.43;;;4.30;;
30398;SDS011;17195;50.838;7.214;2023-05-29T02:21:11;8.75;;;4.50;;
30398;SDS011;17195;50.838;7.214;2023-05-29T02:23:36;6.30;;;4.50;;
30398;SDS011;17195;50.838;7.214;2023-05-29T02:26:02;5.35;;;4.47;;
30398;SDS011;17195;50.838;7.214;2023-05-29T02:28:27;7.63;;;4.15;;
30398;SDS011;17195;50.838;7.214;2023-05-29T02:30:53;5.93;;;4.03;;
30398;SDS011;17195;50.838;7.214;2023-05-29T02:33:19;6.30;;;3.75;;
30398;SDS011;17195;50.838;7.214;2023-05-29T02:35:44;7.45;;;4.30;;
30398;SDS011;17195;50.838;7.214;2023-05-29T02:38:10;6.55;;;4.10;;
30398;SDS011;17195;50.838;7.214;2023-05-29T02:40:36;9.20;;;4.13;;
30398;SDS011;17195;50.838;7.214;2023-05-29T02:43:01;7.30;;;4.50;;
30398;SDS011;17195;50.838;7.214;2023-05-29T02:45:27;6.00;;;4.45;;
30398;SDS011;17195;50.838;7.214;2023-05-29T02:47:52;7.95;;;4.20;;
30398;SDS011;17195;50.838;7.214;2023-05-29T02:50:18;9.35;;;4.38;;
30398;SDS011;17195;50.838;7.214;2023-05-29T02:52:43;7.88;;;4.30;;
30398;SDS011;17195;50.838;7.214;2023-05-29T02:55:09;7.22;;;4.32;;
30398;SDS011;17195;50.838;7.214;2023-05-29T02:57:34;8.30;;;4.60;;
30398;SDS011;17195;50.838;7.214;2023-05-29T03:00:00;12.85;;;5.10;;
30398;SDS011;17195;50.838;7.214;2023-05-29T03:02:26;8.18;;;5.25;;
30398;SDS011;17195;50.838;7.214;2023-05-29T03:04:52;7.85;;;4.53;;
30398;SDS011;17195;50.838;7.214;2023-05-29T03:07:18;8.90;;;4.28;;
30398;SDS011;17195;50.838;7.214;2023-05-29T03:09:44;9.80;;;4.82;;
30398;SDS011;17195;50.838;7.214;2023-05-29T03:12:10;11.80;;;4.28;;
30398;SDS011;17195;50.838;7.214;2023-05-29T03:14:36;7.88;;;4.40;;
30398;SDS011;17195;50.838;7.214;2023-05-29T03:17:03;5.25;;;4.05;;
30398;SDS011;17195;50.838;7.214;2023-05-29T03:19:30;6.82;;;4.10;;
30398;SDS011;17195;50.838;7.214;2023-05-29T03:21:55;9.52;;;4.80;;
30398;SDS011;17195;50.838;7.214;2023-05-29T03:24:21;8.65;;;4.88;;
30398;SDS011;17195;50.838;7.214;2023-05-29T03:26:48;7.93;;;4.15;;
30398;SDS011;17195;50.838;7.214;2023-05-29T03:29:14;9.13;;;3.95;;
30398;SDS011;17195;50.838;7.214;2023-05-29T03:31:41;8.98;;;4.13;;
30398;SDS011;17195;50.838;7.214;2023-05-29T03:34:07;7.10;;;4.30;;
30398;SDS011;17195;50.838;7.214;2023-05-29T03:36:32;7.60;;;4.32;;
30398;SDS011;17195;50.838;7.214;2023-05-29T03:38:58;11.43;;;4.88;;
30398;SDS011;17195;50.838;7.214;2023-05-29T03:41:23;7.60;;;4.63;;
30398;SDS011;17195;50.838;7.214;2023-05-29T03:43:50;9.35;;;4.30;;
30398;SDS011;17195;50.838;7.214;2023-05-29T03:46:16;10.35;;;4.82;;
30398;SDS011;17195;50.838;7.214;2023-05-29T03:48:41;11.98;;;4.57;;
30398;SDS011;17195;50.838;7.214;2023-05-29T03:51:07;7.30;;;4.60;;
30398;SDS011;17195;50.838;7.214;2023-05-29T03:53:32;10.35;;;4.38;;
30398;SDS011;17195;50.838;7.214;2023-05-29T03:55:58;8.63;;;4.45;;
30398;SDS011;17195;50.838;7.214;2023-05-29T03:58:23;8.00;;;4.32;;
30398;SDS011;17195;50.838;7.214;2023-05-29T04:00:49;5.38;;;3.67;;
30398;SDS011;17195;50.838;7.214;2023-05-29T04:03:14;9.05;;;4.20;;
30398;SDS011;17195;50.838;7.214;2023-05-29T04:05:40;11.93;;;4.70;;
30398;SDS011;17195;50.838;7.214;2023-05-29T04:08:06;8.05;;;4.43;;
30398;SDS011;17195;50.838;7.214;2023-05-29T04:10:33;7.72;;;4.53;;
30398;SDS011;17195;50.838;7.214;2023-05-29T04:12:59;7.65;;;4.18;;
30398;SDS011;17195;50.838;7.214;2023-05-29T04:15:26;9.85;;;4.40;;
30398;SDS011;17195;50.838;7.214;2023-05-29T04:17:53;10.10;;;4.85;;
30398;SDS011;17195;50.838;7.214;2023-05-29T04:20:19;9.35;;;4.97;;
30398;SDS011;17195;50.838;7.214;2023-05-29T04:22:45;7.53;;;4.70;;
30398;SDS011;17195;50.838;7.214;2023-05-29T04:25:10;11.57;;;5.85;;
30398;SDS011;17195;50.838;7.214;2023-05-29T04:27:36;11.13;;;4.57;;
30398;SDS011;17195;50.838;7.214;2023-05-29T04:30:03;9.82;;;5.50;;
30398;SDS011;17195;50.838;7.214;2023-05-29T04:32:30;9.73;;;4.85;;
30398;SDS011;17195;50.838;7.214;2023-05-29T04:34:55;11.15;;;4.57;;
30398;SDS011;17195;50.838;7.214;2023-05-29T04:37:21;12.20;;;4.85;;
30398;SDS011;17195;50.838;7.214;2023-05-29T04:39:53;10.85;;;5.43;;
30398;SDS011;17195;50.838;7.214;2023-05-29T04:42:19;11.60;;;5.47;;
30398;SDS011;17195;50.838;7.214;2023-05-29T04:44:45;13.23;;;5.70;;
30398;SDS011;17195;50.838;7.214;2023-05-29T04:47:11;10.88;;;5.80;;
30398;SDS011;17195;50.838;7.214;2023-05-29T04:49:37;13.23;;;5.50;;
30398;SDS011;17195;50.838;7.214;2023-05-29T04:52:04;13.82;;;6.28;;
30398;SDS011;17195;50.838;7.214;2023-05-29T04:54:30;10.50;;;5.35;;
30398;SDS011;17195;50.838;7.214;2023-05-29T04:56:55;13.15;;;6.13;;
30398;SDS011;17195;50.838;7.214;2023-05-29T04:59:21;10.68;;;5.72;;
30398;SDS011;17195;50.838;7.214;2023-05-29T05:01:46;9.73;;;5.57;;
30398;SDS011;17195;50.838;7.214;2023-05-29T05:04:13;12.75;;;6.03;;
30398;SDS011;17195;50.838;7.214;2023-05-29T05:06:38;16.55;;;6.63;;
30398;SDS011;17195;50.838;7.214;2023-05-29T05:09:04;13.45;;;5.78;;
30398;SDS011;17195;50.838;7.214;2023-05-29T05:11:29;13.52;;;5.82;;
30398;SDS011;17195;50.838;7.214;2023-05-29T05:13:55;14.15;;;6.20;;
30398;SDS011;17195;50.838;7.214;2023-05-29T05:16:20;12.82;;;5.90;;
30398;SDS011;17195;50.838;7.214;2023-05-29T05:18:46;11.73;;;6.18;;
30398;SDS011;17195;50.838;7.214;2023-05-29T05:21:11;15.02;;;6.22;;
30398;SDS011;17195;50.838;7.214;2023-05-29T05:23:37;12.43;;;6.07;;
30398;SDS011;17195;50.838;7.214;2023-05-29T05:26:02;12.45;;;6.10;;
30398;SDS011;17195;50.838;7.214;2023-05-29T05:28:28;9.52;;;4.97;;
30398;SDS011;17195;50.838;7.214;2023-05-29T05:30:53;12.18;;;5.07;;
30398;SDS011;17195;50.838;7.214;2023-05-29T05:33:19;10.35;;;5.97;;
30398;SDS011;17195;50.838;7.214;2023-05-29T05:35:45;11.18;;;5.22;;
30398;SDS011;17195;50.838;7.214;2023-05-29T05:38:10;14.85;;;5.90;;
30398;SDS011;17195;50.838;7.214;2023-05-29T05:40:36;11.93;;;5.72;;
30398;SDS011;17195;50.838;7.214;2023-05-29T05:43:01;12.90;;;5.65;;
30398;SDS011;17195;50.838;7.214;2023-05-29T05:45:27;12.45;;;5.82;;
30398;SDS011;17195;50.838;7.214;2023-05-29T05:47:52;15.52;;;6.13;;
30398;SDS011;17195;50.838;7.214;2023-05-29T05:50:18;13.27;;;5.80;;
30398;SDS011;17195;50.838;7.214;2023-05-29T05:52:44;11.13;;;5.68;;
30398;SDS011;17195;50.838;7.214;2023-05-29T05:55:10;15.18;;;6.03;;
30398;SDS011;17195;50.838;7.214;2023-05-29T05:57:35;14.05;;;5.53;;
30398;SDS011;17195;50.838;7.214;2023-05-29T06:00:02;8.75;;;5.53;;
30398;SDS011;17195;50.838;7.214;2023-05-29T06:02:38;14.10;;;6.57;;
30398;SDS011;17195;50.838;7.214;2023-05-29T06:05:07;10.52;;;5.43;;
30398;SDS011;17195;50.838;7.214;2023-05-29T06:07:34;13.23;;;5.93;;
30398;SDS011;17195;50.838;7.214;2023-05-29T06:10:00;13.40;;;5.50;;
30398;SDS011;17195;50.838;7.214;2023-05-29T06:12:26;14.20;;;5.90;;
30398;SDS011;17195;50.838;7.214;2023-05-29T06:14:52;11.40;;;5.70;;
30398;SDS011;17195;50.838;7.214;2023-05-29T06:17:17;12.77;;;5.78;;
30398;SDS011;17195;50.838;7.214;2023-05-29T06:19:43;12.35;;;5.90;;
30398;SDS011;17195;50.838;7.214;2023-05-29T06:22:08;17.08;;;5.78;;
30398;SDS011;17195;50.838;7.214;2023-05-29T06:24:34;16.33;;;6.40;;
30398;SDS011;17195;50.838;7.214;2023-05-29T06:27:00;11.20;;;5.60;;
30398;SDS011;17195;50.838;7.214;2023-05-29T06:29:26;14.43;;;5.93;;
30398;SDS011;17195;50.838;7.214;2023-05-29T06:31:51;9.00;;;5.22;;
30398;SDS011;17195;50.838;7.214;2023-05-29T06:34:17;13.23;;;5.75;;
30398;SDS011;17195;50.838;7.214;2023-05-29T06:36:42;13.35;;;4.85;;
30398;SDS011;17195;50.838;7.214;2023-05-29T06:39:08;11.68;;;5.63;;
30398;SDS011;17195;50.838;7.214;2023-05-29T06:41:35;13.25;;;6.15;;
30398;SDS011;17195;50.838;7.214;2023-05-29T06:44:00;9.63;;;4.95;;
30398;SDS011;17195;50.838;7.214;2023-05-29T06:46:26;11.15;;;5.78;;
30398;SDS011;17195;50.838;7.214;2023-05-29T06:48:51;14.65;;;5.75;;
30398;SDS011;17195;50.838;7.214;2023-05-29T06:51:17;14.85;;;5.72;;
30398;SDS011;17195;50.838;7.214;2023-05-29T06:53:43;11.35;;;5.03;;
30398;SDS011;17195;50.838;7.214;2023-05-29T06:56:09;12.88;;;5.57;;
30398;SDS011;17195;50.838;7.214;2023-05-29T06:58:35;13.43;;;5.78;;
30398;SDS011;17195;50.838;7.214;2023-05-29T07:01:00;11.20;;;5.43;;
30398;SDS011;17195;50.838;7.214;2023-05-29T07:03:26;13.85;;;5.70;;
30398;SDS011;17195;50.838;7.214;2023-05-29T07:05:52;9.57;;;5.38;;
30398;SDS011;17195;50.838;7.214;2023-05-29T07:08:18;12.13;;;4.72;;
30398;SDS011;17195;50.838;7.214;2023-05-29T07:10:44;14.80;;;5.55;;
30398;SDS011;17195;50.838;7.214;2023-05-29T07:13:09;12.52;;;5.45;;
30398;SDS011;17195;50.838;7.214;2023-05-29T07:15:38;14.68;;;5.65;;
30398;SDS011;17195;50.838;7.214;2023-05-29T07:18:04;13.15;;;5.22;;
30398;SDS011;17195;50.838;7.214;2023-05-29T07:20:29;11.75;;;5.80;;
30398;SDS011;17195;50.838;7.214;2023-05-29T07:22:55;12.25;;;5.57;;
30398;SDS011;17195;50.838;7.214;2023-05-29T07:25:20;13.93;;;5.78;;
30398;SDS011;17195;50.838;7.214;2023-05-29T07:27:46;9.57;;;5.43;;
30398;SDS011;17195;50.838;7.214;2023-05-29T07:30:11;13.82;;;6.35;;
30398;SDS011;17195;50.838;7.214;2023-05-29T07:32:37;14.05;;;5.28;;
30398;SDS011;17195;50.838;7.214;2023-05-29T07:35:03;13.82;;;5.20;;
30398;SDS011;17195;50.838;7.214;2023-05-29T07:37:29;12.85;;;5.45;;
30398;SDS011;17195;50.838;7.214;2023-05-29T07:39:55;10.73;;;5.28;;
30398;SDS011;17195;50.838;7.214;2023-05-29T07:42:20;14.07;;;5.05;;
30398;SDS011;17195;50.838;7.214;2023-05-29T07:44:46;18.90;;;6.03;;
30398;SDS011;17195;50.838;7.214;2023-05-29T07:47:13;8.85;;;4.95;;
30398;SDS011;17195;50.838;7.214;2023-05-29T07:49:38;10.32;;;4.85;;
30398;SDS011;17195;50.838;7.214;2023-05-29T07:52:04;11.68;;;5.07;;
30398;SDS011;17195;50.838;7.214;2023-05-29T07:54:30;11.85;;;5.05;;
30398;SDS011;17195;50.838;7.214;2023-05-29T07:56:58;10.63;;;5.18;;
30398;SDS011;17195;50.838;7.214;2023-05-29T07:59:24;13.00;;;5.65;;
30398;SDS011;17195;50.838;7.214;2023-05-29T08:01:50;11.98;;;5.50;;
30398;SDS011;17195;50.838;7.214;2023-05-29T08:04:16;12.23;;;5.57;;
30398;SDS011;17195;50.838;7.214;2023-05-29T08:06:41;10.70;;;5.57;;
30398;SDS011;17195;50.838;7.214;2023-05-29T08:09:08;10.73;;;5.03;;
30398;SDS011;17195;50.838;7.214;2023-05-29T08:11:34;13.65;;;5.18;;
30398;SDS011;17195;50.838;7.214;2023-05-29T08:14:03;12.40;;;4.40;;
30398;SDS011;17195;50.838;7.214;2023-05-29T08:16:29;7.40;;;4.32;;
30398;SDS011;17195;50.838;7.214;2023-05-29T08:18:54;10.15;;;4.40;;
30398;SDS011;17195;50.838;7.214;2023-05-29T08:21:20;8.10;;;4.40;;
30398;SDS011;17195;50.838;7.214;2023-05-29T08:23:46;12.55;;;4.70;;
30398;SDS011;17195;50.838;7.214;2023-05-29T08:26:12;9.23;;;4.70;;
30398;SDS011;17195;50.838;7.214;2023-05-29T08:28:38;10.13;;;4.55;;
30398;SDS011;17195;50.838;7.214;2023-05-29T08:31:03;12.90;;;5.10;;
30398;SDS011;17195;50.838;7.214;2023-05-29T08:33:29;7.85;;;3.50;;
30398;SDS011;17195;50.838;7.214;2023-05-29T08:35:56;13.30;;;4.88;;
30398;SDS011;17195;50.838;7.214;2023-05-29T08:38:23;8.38;;;4.15;;
30398;SDS011;17195;50.838;7.214;2023-05-29T08:40:50;8.98;;;4.25;;
30398;SDS011;17195;50.838;7.214;2023-05-29T08:43:18;11.83;;;4.40;;
30398;SDS011;17195;50.838;7.214;2023-05-29T08:46:10;9.52;;;4.43;;
30398;SDS011;17195;50.838;7.214;2023-05-29T08:48:34;12.43;;;3.95;;
30398;SDS011;17195;50.838;7.214;2023-05-29T08:51:04;12.60;;;4.43;;
30398;SDS011;17195;50.838;7.214;2023-05-29T08:53:32;12.98;;;3.95;;
30398;SDS011;17195;50.838;7.214;2023-05-29T08:55:58;9.45;;;4.30;;
30398;SDS011;17195;50.838;7.214;2023-05-29T08:58:24;12.00;;;4.28;;
30398;SDS011;17195;50.838;7.214;2023-05-29T09:00:51;8.20;;;3.72;;
30398;SDS011;17195;50.838;7.214;2023-05-29T09:03:17;9.23;;;3.78;;
30398;SDS011;17195;50.838;7.214;2023-05-29T09:05:42;7.95;;;3.53;;
30398;SDS011;17195;50.838;7.214;2023-05-29T09:08:09;7.60;;;3.63;;
30398;SDS011;17195;50.838;7.214;2023-05-29T09:10:43;10.43;;;4.10;;
30398;SDS011;17195;50.838;7.214;2023-05-29T09:13:10;9.38;;;4.05;;
30398;SDS011;17195;50.838;7.214;2023-05-29T09:15:38;10.23;;;4.22;;
30398;SDS011;17195;50.838;7.214;2023-05-29T09:18:07;9.98;;;4.13;;
30398;SDS011;17195;50.838;7.214;2023-05-29T09:20:33;10.52;;;3.88;;
30398;SDS011;17195;50.838;7.214;2023-05-29T09:23:00;9.82;;;3.90;;
30398;SDS011;17195;50.838;7.214;2023-05-29T09:25:29;11.32;;;4.55;;
30398;SDS011;17195;50.838;7.214;2023-05-29T09:28:00;10.15;;;3.88;;
30398;SDS011;17195;50.838;7.214;2023-05-29T09:32:56;8.60;;;4.35;;
30398;SDS011;17195;50.838;7.214;2023-05-29T09:35:23;8.80;;;3.83;;
30398;SDS011;17195;50.838;7.214;2023-05-29T09:37:48;7.65;;;4.00;;
30398;SDS011;17195;50.838;7.214;2023-05-29T09:40:15;10.15;;;3.85;;
30398;SDS011;17195;50.838;7.214;2023-05-29T09:42:41;12.50;;;4.32;;
30398;SDS011;17195;50.838;7.214;2023-05-29T09:45:06;9.93;;;3.40;;
30398;SDS011;17195;50.838;7.214;2023-05-29T09:47:33;12.55;;;4.07;;
30398;SDS011;17195;50.838;7.214;2023-05-29T09:50:00;15.05;;;3.95;;
30398;SDS011;17195;50.838;7.214;2023-05-29T09:52:26;10.60;;;3.95;;
30398;SDS011;17195;50.838;7.214;2023-05-29T09:54:55;12.02;;;3.92;;
30398;SDS011;17195;50.838;7.214;2023-05-29T09:57:21;10.88;;;3.85;;
30398;SDS011;17195;50.838;7.214;2023-05-29T09:59:49;9.85;;;3.65;;
30398;SDS011;17195;50.838;7.214;2023-05-29T10:02:17;9.32;;;3.55;;
30398;SDS011;17195;50.838;7.214;2023-05-29T10:04:44;11.73;;;3.70;;
30398;SDS011;17195;50.838;7.214;2023-05-29T10:07:15;8.93;;;3.35;;
30398;SDS011;17195;50.838;7.214;2023-05-29T10:09:50;10.38;;;3.47;;
30398;SDS011;17195;50.838;7.214;2023-05-29T10:12:20;11.93;;;3.55;;
30398;SDS011;17195;50.838;7.214;2023-05-29T10:14:48;10.40;;;3.42;;
30398;SDS011;17195;50.838;7.214;2023-05-29T10:17:15;9.68;;;3.25;;
30398;SDS011;17195;50.838;7.214;2023-05-29T10:19:48;11.27;;;3.42;;
30398;SDS011;17195;50.838;7.214;2023-05-29T10:22:15;8.95;;;3.15;;
30398;SDS011;17195;50.838;7.214;2023-05-29T10:24:45;16.80;;;3.65;;
30398;SDS011;17195;50.838;7.214;2023-05-29T10:27:13;7.72;;;3.40;;
30398;SDS011;17195;50.838;7.214;2023-05-29T10:29:43;8.10;;;3.22;;
30398;SDS011;17195;50.838;7.214;2023-05-29T10:32:27;8.73;;;3.50;;
30398;SDS011;17195;50.838;7.214;2023-05-29T10:40:16;8.27;;;3.30;;
30398;SDS011;17195;50.838;7.214;2023-05-29T10:42:51;9.50;;;3.20;;
30398;SDS011;17195;50.838;7.214;2023-05-29T10:48:35;7.53;;;3.13;;
30398;SDS011;17195;50.838;7.214;2023-05-29T10:50:43;10.02;;;3.50;;
30398;SDS011;17195;50.838;7.214;2023-05-29T10:53:16;9.52;;;3.13;;
30398;SDS011;17195;50.838;7.214;2023-05-29T10:55:42;7.38;;;2.90;;
30398;SDS011;17195;50.838;7.214;2023-05-29T10:58:12;8.30;;;3.50;;
30398;SDS011;17195;50.838;7.214;2023-05-29T11:00:43;8.70;;;3.33;;
30398;SDS011;17195;50.838;7.214;2023-05-29T11:03:11;8.98;;;3.30;;
30398;SDS011;17195;50.838;7.214;2023-05-29T11:11:12;8.82;;;2.95;;
30398;SDS011;17195;50.838;7.214;2023-05-29T11:13:57;9.73;;;3.28;;
30398;SDS011;17195;50.838;7.214;2023-05-29T11:18:54;10.10;;;3.28;;
30398;SDS011;17195;50.838;7.214;2023-05-29T11:24:24;12.90;;;3.42;;
30398;SDS011;17195;50.838;7.214;2023-05-29T11:26:54;10.48;;;3.10;;
30398;SDS011;17195;50.838;7.214;2023-05-29T11:29:26;9.88;;;3.28;;
30398;SDS011;17195;50.838;7.214;2023-05-29T11:31:56;7.22;;;3.30;;
30398;SDS011;17195;50.838;7.214;2023-05-29T11:34:27;7.63;;;2.63;;
30398;SDS011;17195;50.838;7.214;2023-05-29T11:36:54;10.52;;;3.20;;
30398;SDS011;17195;50.838;7.214;2023-05-29T11:39:21;10.48;;;3.38;;
30398;SDS011;17195;50.838;7.214;2023-05-29T11:41:50;9.73;;;2.75;;
30398;SDS011;17195;50.838;7.214;2023-05-29T11:44:16;15.23;;;3.60;;
30398;SDS011;17195;50.838;7.214;2023-05-29T11:46:42;8.27;;;3.63;;
30398;SDS011;17195;50.838;7.214;2023-05-29T11:49:07;10.23;;;3.38;;
30398;SDS011;17195;50.838;7.214;2023-05-29T11:51:33;9.75;;;3.60;;
30398;SDS011;17195;50.838;7.214;2023-05-29T11:53:58;8.25;;;3.30;;
30398;SDS011;17195;50.838;7.214;2023-05-29T11:56:27;11.98;;;3.50;;
30398;SDS011;17195;50.838;7.214;2023-05-29T11:58:54;9.60;;;3.65;;
30398;SDS011;17195;50.838;7.214;2023-05-29T12:01:22;9.98;;;3.10;;
30398;SDS011;17195;50.838;7.214;2023-05-29T12:03:48;13.02;;;3.42;;
30398;SDS011;17195;50.838;7.214;2023-05-29T12:06:14;8.43;;;3.00;;
30398;SDS011;17195;50.838;7.214;2023-05-29T12:08:40;6.55;;;2.92;;
30398;SDS011;17195;50.838;7.214;2023-05-29T12:11:06;9.60;;;3.33;;
30398;SDS011;17195;50.838;7.214;2023-05-29T12:13:32;9.90;;;3.75;;
30398;SDS011;17195;50.838;7.214;2023-05-29T12:15:59;13.98;;;5.88;;
30398;SDS011;17195;50.838;7.214;2023-05-29T12:18:27;8.55;;;4.00;;
30398;SDS011;17195;50.838;7.214;2023-05-29T12:20:58;8.18;;;3.20;;
30398;SDS011;17195;50.838;7.214;2023-05-29T12:23:27;8.52;;;3.80;;
30398;SDS011;17195;50.838;7.214;2023-05-29T12:25:54;9.02;;;3.22;;
30398;SDS011;17195;50.838;7.214;2023-05-29T12:28:21;10.25;;;3.13;;
30398;SDS011;17195;50.838;7.214;2023-05-29T12:30:46;6.97;;;3.05;;
30398;SDS011;17195;50.838;7.214;2023-05-29T12:33:29;5.80;;;2.60;;
30398;SDS011;17195;50.838;7.214;2023-05-29T12:36:04;8.85;;;3.53;;
30398;SDS011;17195;50.838;7.214;2023-05-29T12:38:47;6.75;;;2.95;;
30398;SDS011;17195;50.838;7.214;2023-05-29T12:41:26;10.38;;;3.80;;
30398;SDS011;17195;50.838;7.214;2023-05-29T12:43:54;8.38;;;3.10;;
30398;SDS011;17195;50.838;7.214;2023-05-29T12:46:25;10.02;;;3.35;;
30398;SDS011;17195;50.838;7.214;2023-05-29T12:48:52;8.50;;;3.10;;
30398;SDS011;17195;50.838;7.214;2023-05-29T12:51:22;12.90;;;3.10;;
30398;SDS011;17195;50.838;7.214;2023-05-29T12:53:51;7.20;;;3.13;;
30398;SDS011;17195;50.838;7.214;2023-05-29T12:56:19;8.02;;;2.72;;
30398;SDS011;17195;50.838;7.214;2023-05-29T12:58:50;8.82;;;3.15;;
30398;SDS011;17195;50.838;7.214;2023-05-29T13:01:16;9.50;;;3.05;;
30398;SDS011;17195;50.838;7.214;2023-05-29T13:03:41;10.85;;;3.08;;
30398;SDS011;17195;50.838;7.214;2023-05-29T13:06:07;9.25;;;3.03;;
30398;SDS011;17195;50.838;7.214;2023-05-29T13:08:33;11.50;;;3.65;;
30398;SDS011;17195;50.838;7.214;2023-05-29T13:10:59;8.98;;;3.08;;
30398;SDS011;17195;50.838;7.214;2023-05-29T13:13:24;11.57;;;3.10;;
30398;SDS011;17195;50.838;7.214;2023-05-29T13:15:50;13.05;;;3.60;;
30398;SDS011;17195;50.838;7.214;2023-05-29T13:18:16;7.20;;;2.72;;
30398;SDS011;17195;50.838;7.214;2023-05-29T13:20:41;9.65;;;3.75;;
30398;SDS011;17195;50.838;7.214;2023-05-29T13:23:07;11.40;;;3.22;;
30398;SDS011;17195;50.838;7.214;2023-05-29T13:25:33;10.82;;;2.90;;
30398;SDS011;17195;50.838;7.214;2023-05-29T13:27:59;8.32;;;2.90;;
30398;SDS011;17195;50.838;7.214;2023-05-29T13:30:25;10.00;;;3.63;;
30398;SDS011;17195;50.838;7.214;2023-05-29T13:32:51;11.73;;;3.30;;
30398;SDS011;17195;50.838;7.214;2023-05-29T13:35:17;9.88;;;2.83;;
30398;SDS011;17195;50.838;7.214;2023-05-29T13:37:43;7.30;;;2.88;;
30398;SDS011;17195;50.838;7.214;2023-05-29T13:40:08;11.70;;;3.63;;
30398;SDS011;17195;50.838;7.214;2023-05-29T13:42:34;6.93;;;3.13;;
30398;SDS011;17195;50.838;7.214;2023-05-29T13:45:00;8.85;;;2.97;;
30398;SDS011;17195;50.838;7.214;2023-05-29T13:47:26;15.00;;;3.20;;
30398;SDS011;17195;50.838;7.214;2023-05-29T13:49:57;10.95;;;3.78;;
30398;SDS011;17195;50.838;7.214;2023-05-29T13:52:22;8.80;;;2.92;;
30398;SDS011;17195;50.838;7.214;2023-05-29T13:54:48;12.68;;;3.17;;
30398;SDS011;17195;50.838;7.214;2023-05-29T13:57:13;6.88;;;3.00;;
30398;SDS011;17195;50.838;7.214;2023-05-29T13:59:39;11.20;;;3.40;;
30398;SDS011;17195;50.838;7.214;2023-05-29T14:02:05;7.57;;;2.72;;
30398;SDS011;17195;50.838;7.214;2023-05-29T14:04:32;7.65;;;2.47;;
30398;SDS011;17195;50.838;7.214;2023-05-29T14:06:58;9.95;;;3.03;;
30398;SDS011;17195;50.838;7.214;2023-05-29T14:09:24;10.52;;;3.08;;
30398;SDS011;17195;50.838;7.214;2023-05-29T14:11:53;9.40;;;2.78;;
30398;SDS011;17195;50.838;7.214;2023-05-29T14:14:19;10.48;;;2.78;;
30398;SDS011;17195;50.838;7.214;2023-05-29T14:16:45;8.02;;;2.78;;
30398;SDS011;17195;50.838;7.214;2023-05-29T14:19:11;7.47;;;2.80;;
30398;SDS011;17195;50.838;7.214;2023-05-29T14:21:36;7.75;;;2.90;;
30398;SDS011;17195;50.838;7.214;2023-05-29T14:24:02;6.32;;;2.75;;
30398;SDS011;17195;50.838;7.214;2023-05-29T14:26:28;10.02;;;3.20;;
30398;SDS011;17195;50.838;7.214;2023-05-29T14:28:53;9.82;;;3.22;;
30398;SDS011;17195;50.838;7.214;2023-05-29T14:31:19;9.63;;;3.28;;
30398;SDS011;17195;50.838;7.214;2023-05-29T14:33:44;10.30;;;2.90;;
30398;SDS011;17195;50.838;7.214;2023-05-29T14:36:10;6.20;;;2.72;;
30398;SDS011;17195;50.838;7.214;2023-05-29T14:38:35;13.88;;;3.50;;
30398;SDS011;17195;50.838;7.214;2023-05-29T14:41:01;9.52;;;2.95;;
30398;SDS011;17195;50.838;7.214;2023-05-29T14:43:27;8.55;;;2.97;;
30398;SDS011;17195;50.838;7.214;2023-05-29T14:45:52;9.73;;;3.40;;
30398;SDS011;17195;50.838;7.214;2023-05-29T14:48:18;12.32;;;3.30;;
30398;SDS011;17195;50.838;7.214;2023-05-29T14:50:43;4.97;;;2.58;;
30398;SDS011;17195;50.838;7.214;2023-05-29T14:53:09;7.10;;;2.58;;
30398;SDS011;17195;50.838;7.214;2023-05-29T14:55:34;8.02;;;2.70;;
30398;SDS011;17195;50.838;7.214;2023-05-29T14:58:04;8.88;;;2.63;;
30398;SDS011;17195;50.838;7.214;2023-05-29T15:00:29;9.65;;;3.38;;
30398;SDS011;17195;50.838;7.214;2023-05-29T15:02:56;7.05;;;2.90;;
30398;SDS011;17195;50.838;7.214;2023-05-29T15:05:24;6.95;;;2.58;;
30398;SDS011;17195;50.838;7.214;2023-05-29T15:07:50;8.15;;;2.85;;
30398;SDS011;17195;50.838;7.214;2023-05-29T15:10:16;7.60;;;2.83;;